createdAt,value
2018-09-04T00:01:43.938Z,37.93
2018-09-04T00:04:12.345Z,35.83
2018-09-04T00:06:40.739Z,39.70
2018-09-04T00:09:09.118Z,37.63
2018-09-04T00:11:37.513Z,36.47
2018-09-04T00:14:06.346Z,36.20
2018-09-04T00:16:34.760Z,38.80
2018-09-04T00:19:03.141Z,38.53
2018-09-04T00:21:31.556Z,32.03
2018-09-04T00:24:00.222Z,38.67
2018-09-04T00:26:28.633Z,39.37
2018-09-04T00:28:57.089Z,39.83
2018-09-04T00:31:25.466Z,36.50
2018-09-04T00:33:53.853Z,38.53
2018-09-04T00:36:22.538Z,37.33
2018-09-04T00:38:50.913Z,37.00
2018-09-04T00:41:19.374Z,39.27
2018-09-04T00:43:47.806Z,36.27
2018-09-04T00:46:16.179Z,41.70
2018-09-04T00:48:44.533Z,39.87
2018-09-04T00:51:13.524Z,34.33
2018-09-04T00:53:41.904Z,40.67
2018-09-04T00:56:10.247Z,41.63
2018-09-04T00:58:44.050Z,39.17
2018-09-04T01:01:12.447Z,42.77
2018-09-04T01:03:40.884Z,42.43
2018-09-04T01:06:09.377Z,41.43
2018-09-04T01:08:37.796Z,42.50
2018-09-04T01:11:06.228Z,44.53
2018-09-04T01:13:40.387Z,37.40
2018-09-04T01:16:08.738Z,38.20
2018-09-04T01:18:37.179Z,40.80
2018-09-04T01:21:05.604Z,42.30
2018-09-04T01:23:33.990Z,39.13
2018-09-04T01:26:02.329Z,44.33
2018-09-04T01:28:30.698Z,41.30
2018-09-04T01:30:59.310Z,38.97
2018-09-04T01:33:28.490Z,43.27
2018-09-04T01:35:56.865Z,47.33
2018-09-04T01:38:25.316Z,46.83
2018-09-04T01:40:53.704Z,45.43
2018-09-04T01:43:22.153Z,43.47
2018-09-04T01:45:50.628Z,45.43
2018-09-04T01:48:19.001Z,44.13
2018-09-04T01:50:47.424Z,41.67
2018-09-04T01:53:15.773Z,43.43
2018-09-04T01:55:44.153Z,34.40
2018-09-04T01:58:12.521Z,48.03
2018-09-04T02:00:40.946Z,49.00
2018-09-04T02:03:09.337Z,43.00
2018-09-04T02:05:37.725Z,32.27
2018-09-04T02:08:06.657Z,48.47
2018-09-04T02:10:35.045Z,38.60
2018-09-04T02:13:03.412Z,44.17
2018-09-04T02:15:31.893Z,39.63
2018-09-04T02:18:00.289Z,42.20
2018-09-04T02:20:28.797Z,49.00
2018-09-04T02:22:57.852Z,38.40
2018-09-04T02:25:26.243Z,50.83
2018-09-04T02:27:54.616Z,48.97
2018-09-04T02:30:22.989Z,50.20
2018-09-04T02:32:51.354Z,51.50
2018-09-04T02:35:19.763Z,50.90
2018-09-04T02:37:48.134Z,46.67
2018-09-04T02:40:16.512Z,37.83
2018-09-04T02:42:44.917Z,48.93
2018-09-04T02:45:13.368Z,49.50
2018-09-04T02:47:41.763Z,47.50
2018-09-04T02:50:10.110Z,36.40
2018-09-04T02:52:38.484Z,48.00
2018-09-04T02:55:06.897Z,49.70
2018-09-04T02:57:35.357Z,55.30
2018-09-04T03:00:03.833Z,53.87
2018-09-04T03:02:32.229Z,51.87
2018-09-04T03:05:00.601Z,54.07
2018-09-04T03:07:29.009Z,52.53
2018-09-04T03:09:57.369Z,55.60
2018-09-04T03:12:25.737Z,55.67
2018-09-04T03:14:54.190Z,54.77
2018-09-04T03:17:22.822Z,55.97
2018-09-04T03:19:51.263Z,56.87
2018-09-04T03:22:19.651Z,60.13
2018-09-04T03:24:48.027Z,55.87
2018-09-04T03:27:16.403Z,56.57
2018-09-04T03:29:44.786Z,61.97
2018-09-04T03:32:13.166Z,59.87
2018-09-04T03:34:41.553Z,59.07
2018-09-04T03:37:09.937Z,61.77
2018-09-04T03:39:38.313Z,56.97
2018-09-04T03:42:06.829Z,57.73
2018-09-04T03:44:35.259Z,67.40
2018-09-04T03:47:03.685Z,64.03
2018-09-04T03:49:32.062Z,58.57
2018-09-04T03:52:00.449Z,59.67
2018-09-04T03:54:29.049Z,63.03
2018-09-04T03:56:57.429Z,58.30
2018-09-04T03:59:25.845Z,60.60
2018-09-04T04:01:54.234Z,60.00
2018-09-04T04:04:22.641Z,57.13
2018-09-04T04:06:51.396Z,56.87
2018-09-04T04:09:19.766Z,59.03
2018-09-04T04:11:48.175Z,58.73
2018-09-04T04:14:17.112Z,58.90
2018-09-04T04:16:45.469Z,59.23
2018-09-04T04:19:13.881Z,58.87
2018-09-04T04:21:42.970Z,56.00
2018-09-04T04:24:11.332Z,56.33
2018-09-04T04:26:39.704Z,55.23
2018-09-04T04:29:08.103Z,56.47
2018-09-04T04:31:36.581Z,57.87
2018-09-04T04:34:04.988Z,60.47
2018-09-04T04:36:33.359Z,63.37
2018-09-04T04:39:01.749Z,54.50
2018-09-04T04:41:30.163Z,64.97
2018-09-04T04:43:58.558Z,59.13
2018-09-04T04:46:27.064Z,59.83
2018-09-04T04:48:55.465Z,57.80
2018-09-04T04:51:23.862Z,64.60
2018-09-04T04:53:52.209Z,66.17
2018-09-04T04:56:21.321Z,59.90
2018-09-04T04:58:49.725Z,59.40
2018-09-04T05:01:18.129Z,61.00
2018-09-04T05:03:46.506Z,59.73
2018-09-04T05:06:14.896Z,59.20
2018-09-04T05:08:44.005Z,59.58
2018-09-04T05:11:12.409Z,61.73
2018-09-04T05:13:40.795Z,56.87
2018-09-04T05:16:09.725Z,63.10
2018-09-04T05:18:38.112Z,64.27
2018-09-04T05:21:06.529Z,60.53
2018-09-04T05:23:35.501Z,54.73
2018-09-04T05:26:04.883Z,54.57
2018-09-04T05:28:33.456Z,48.43
2018-09-04T05:31:01.881Z,40.60
2018-09-04T05:33:45.551Z,55.77
2018-09-04T05:36:14.469Z,62.40
2018-09-04T05:38:42.867Z,60.17
2018-09-04T05:41:11.267Z,64.40
2018-09-04T05:43:47.893Z,50.60
2018-09-04T05:46:20.815Z,67.47
2018-09-04T05:48:49.195Z,54.60
2018-09-04T05:51:17.629Z,59.17
2018-09-04T05:53:46.115Z,60.30
2018-09-04T05:56:14.501Z,63.83
2018-09-04T05:58:42.959Z,64.00
2018-09-04T06:01:11.365Z,61.53
2018-09-04T06:03:39.830Z,66.03
2018-09-04T06:06:08.249Z,61.93
2018-09-04T06:08:36.683Z,62.60
2018-09-04T06:11:05.069Z,64.70
2018-09-04T06:13:33.450Z,67.30
2018-09-04T06:16:01.865Z,63.87
2018-09-04T06:18:30.386Z,70.97
2018-09-04T06:20:58.757Z,68.30
2018-09-04T06:23:27.166Z,64.27
2018-09-04T06:25:55.828Z,69.43
2018-09-04T06:28:24.320Z,69.27
2018-09-04T06:30:52.761Z,59.50
2018-09-04T06:33:21.230Z,61.80
2018-09-04T06:35:49.656Z,61.80
2018-09-04T06:38:18.098Z,63.33
2018-09-04T06:40:46.474Z,57.17
2018-09-04T06:43:14.829Z,67.10
2018-09-04T06:45:43.417Z,64.90
2018-09-04T06:48:11.850Z,69.53
2018-09-04T06:50:40.254Z,64.07
2018-09-04T06:53:08.685Z,65.47
2018-09-04T06:55:37.069Z,62.97
2018-09-04T06:58:05.492Z,60.43
2018-09-04T07:00:33.897Z,64.70
2018-09-04T07:03:02.294Z,61.87
2018-09-04T07:05:30.637Z,64.13
2018-09-04T07:07:59.081Z,49.73
2018-09-04T07:10:27.458Z,49.43
2018-09-04T07:12:55.909Z,60.73
2018-09-04T07:15:24.281Z,62.47
2018-09-04T07:17:52.675Z,65.37
2018-09-04T07:20:21.146Z,66.67
2018-09-04T07:22:49.562Z,57.23
2018-09-04T07:25:18.021Z,67.83
2018-09-04T07:27:46.371Z,62.57
2018-09-04T07:30:14.781Z,63.87
2018-09-04T07:32:43.138Z,68.30
2018-09-04T07:35:11.505Z,70.83
2018-09-04T07:37:39.938Z,68.83
2018-09-04T07:40:08.613Z,70.53
2018-09-04T07:42:36.965Z,69.07
2018-09-04T07:45:05.921Z,72.63
2018-09-04T07:47:34.310Z,67.00
2018-09-04T07:50:02.743Z,72.03
2018-09-04T07:52:31.156Z,66.87
2018-09-04T07:54:59.557Z,71.67
2018-09-04T07:57:27.946Z,68.17
2018-09-04T07:59:56.333Z,69.40
2018-09-04T08:02:24.683Z,69.23
2018-09-04T08:04:53.047Z,67.77
2018-09-04T08:07:21.479Z,71.67
2018-09-04T08:09:49.846Z,68.10
2018-09-04T08:12:18.190Z,71.73
2018-09-04T08:14:46.644Z,71.23
2018-09-04T08:17:15.009Z,66.43
2018-09-04T08:19:43.466Z,71.63
2018-09-04T08:22:11.890Z,69.70
2018-09-04T08:24:40.262Z,69.30
2018-09-04T08:27:08.660Z,71.10
2018-09-04T08:29:37.020Z,63.17
2018-09-04T08:32:05.401Z,69.60
2018-09-04T08:34:33.818Z,56.70
2018-09-04T08:37:02.201Z,63.77
2018-09-04T08:39:30.574Z,61.80
2018-09-04T08:41:58.933Z,63.83
2018-09-04T08:44:27.341Z,67.13
2018-09-04T08:46:55.739Z,65.10
2018-09-04T08:49:24.180Z,69.43
2018-09-04T08:51:52.588Z,66.80
2018-09-04T08:54:20.957Z,67.30
2018-09-04T08:56:49.353Z,67.37
2018-09-04T08:59:17.740Z,64.97
2018-09-04T09:01:46.222Z,65.53
2018-09-04T09:04:14.585Z,68.20
2018-09-04T09:06:42.973Z,65.27
2018-09-04T09:09:11.361Z,65.53
2018-09-04T09:11:39.764Z,64.67
2018-09-04T09:14:08.209Z,68.00
2018-09-04T09:16:36.760Z,62.17
2018-09-04T09:19:05.241Z,61.17
2018-09-04T09:21:33.653Z,62.50
2018-09-04T09:24:02.096Z,68.37
2018-09-04T09:26:30.486Z,62.60
2018-09-04T09:28:58.873Z,62.53
2018-09-04T09:31:27.594Z,58.57
2018-09-04T09:33:56.047Z,54.40
2018-09-04T09:36:24.998Z,61.80
2018-09-04T09:38:53.390Z,63.73
2018-09-04T09:41:21.926Z,65.23
2018-09-04T09:43:50.333Z,64.80
2018-09-04T09:46:18.761Z,62.80
2018-09-04T09:48:47.136Z,63.87
2018-09-04T09:51:15.530Z,50.13
2018-09-04T09:53:44.688Z,58.05
2018-09-04T09:56:13.101Z,33.07
2018-09-04T09:58:41.601Z,58.97
2018-09-04T10:01:15.298Z,57.97
2018-09-04T10:03:44.673Z,54.90
2018-09-04T10:06:13.123Z,56.27
2018-09-04T10:08:41.585Z,55.30
2018-09-04T10:11:10.071Z,40.43
2018-09-04T10:13:38.413Z,51.10
2018-09-04T10:16:06.840Z,57.87
2018-09-04T10:18:35.247Z,58.43
2018-09-04T10:21:03.652Z,60.47
2018-09-04T10:23:32.266Z,57.83
2018-09-04T10:26:00.708Z,56.87
2018-09-04T10:28:29.197Z,57.40
2018-09-04T10:30:57.596Z,47.10
2018-09-04T10:33:25.970Z,57.60
2018-09-04T10:35:54.357Z,51.70
2018-09-04T10:38:25.710Z,56.50
2018-09-04T10:40:59.717Z,60.20
2018-09-04T10:43:28.980Z,55.73
2018-09-04T10:46:01.417Z,55.17
2018-09-04T10:48:30.253Z,52.70
2018-09-04T10:50:58.839Z,42.60
2018-09-04T10:53:27.292Z,58.03
2018-09-04T10:55:55.992Z,58.70
2018-09-04T10:58:24.480Z,51.77
2018-09-04T11:00:52.918Z,33.63
2018-09-04T11:03:21.282Z,51.27
2018-09-04T11:05:49.661Z,51.30
2018-09-04T11:08:18.316Z,49.87
2018-09-04T11:10:46.710Z,46.87
2018-09-04T11:13:15.114Z,48.20
2018-09-04T11:15:43.760Z,48.43
2018-09-04T11:18:12.179Z,43.07
2018-09-04T11:20:40.629Z,47.20
2018-09-04T11:23:09.046Z,46.30
2018-09-04T11:25:37.498Z,45.43
2018-09-04T11:28:06.485Z,46.40
2018-09-04T11:30:34.923Z,47.23
2018-09-04T11:33:03.389Z,49.07
2018-09-04T11:35:31.981Z,44.50
2018-09-04T11:38:00.377Z,48.90
2018-09-04T11:40:28.820Z,49.40
2018-09-04T11:42:57.161Z,36.47
2018-09-04T11:45:25.581Z,49.47
2018-09-04T11:47:53.984Z,43.83
2018-09-04T11:50:22.385Z,49.30
2018-09-04T11:52:50.774Z,45.90
2018-09-04T11:55:19.217Z,45.37
2018-09-04T11:57:47.588Z,45.90
2018-09-04T12:00:17.043Z,47.20
2018-09-04T12:02:45.888Z,42.60
2018-09-04T12:05:14.413Z,39.47
2018-09-04T12:07:42.803Z,45.53
2018-09-04T12:10:11.232Z,44.30
2018-09-04T12:12:39.723Z,49.20
2018-09-04T12:15:08.042Z,40.90
2018-09-04T12:17:37.002Z,42.40
2018-09-04T12:20:27.905Z,40.23
2018-09-04T12:22:56.429Z,41.30
2018-09-04T12:25:25.751Z,41.73
2018-09-04T12:27:54.809Z,42.20
2018-09-04T12:30:24.172Z,44.37
2018-09-04T12:32:52.920Z,44.50
2018-09-04T12:35:21.341Z,42.27
2018-09-04T12:37:49.737Z,28.63
2018-09-04T12:40:18.174Z,40.57
2018-09-04T12:42:46.645Z,40.33
2018-09-04T12:45:15.017Z,40.40
2018-09-04T12:47:43.416Z,39.90
2018-09-04T12:50:11.811Z,36.93
2018-09-04T12:52:40.319Z,36.33
2018-09-04T12:55:08.734Z,44.17
2018-09-04T12:57:37.155Z,38.23
2018-09-04T13:00:05.871Z,38.77
2018-09-04T13:02:34.229Z,38.33
2018-09-04T13:05:02.625Z,42.83
2018-09-04T13:07:31.023Z,41.37
2018-09-04T13:09:59.406Z,38.80
2018-09-04T13:12:27.809Z,38.07
2018-09-04T13:14:56.213Z,40.57
2018-09-04T13:17:24.671Z,42.40
2018-09-04T13:19:53.090Z,42.33
2018-09-04T13:22:21.489Z,39.33
2018-09-04T13:24:49.942Z,38.97
2018-09-04T13:27:18.393Z,46.87
2018-09-04T13:29:46.801Z,45.00
2018-09-04T13:32:15.177Z,40.77
2018-09-04T13:34:43.537Z,43.80
2018-09-04T13:37:11.894Z,43.47
2018-09-04T13:39:40.390Z,38.87
2018-09-04T13:42:08.848Z,42.93
2018-09-04T13:44:37.265Z,43.30
2018-09-04T13:47:06.809Z,44.03
2018-09-04T13:49:35.375Z,36.23
2018-09-04T13:52:03.661Z,39.63
2018-09-04T13:54:32.033Z,34.80
2018-09-04T13:57:00.476Z,36.57
2018-09-04T13:59:28.886Z,40.23
2018-09-04T14:01:57.315Z,32.60
2018-09-04T14:04:26.009Z,32.00
2018-09-04T14:06:54.305Z,35.87
2018-09-04T14:09:22.724Z,36.43
2018-09-04T14:11:51.427Z,37.17
2018-09-04T14:14:19.854Z,36.90
2018-09-04T14:16:48.212Z,41.43
2018-09-04T14:19:16.635Z,40.47
2018-09-04T14:21:45.054Z,41.63
2018-09-04T14:24:13.537Z,39.73
2018-09-04T14:26:41.957Z,40.60
2018-09-04T14:29:10.371Z,43.73
2018-09-04T14:31:38.790Z,38.30
2018-09-04T14:34:07.142Z,40.23
2018-09-04T14:36:36.087Z,43.93
2018-09-04T14:39:05.097Z,43.07
2018-09-04T14:41:33.538Z,42.83
2018-09-04T14:44:01.974Z,43.73
2018-09-04T14:46:30.373Z,45.13
2018-09-04T14:48:58.765Z,42.17
2018-09-04T14:51:27.141Z,43.97
2018-09-04T14:53:55.535Z,40.47
2018-09-04T14:56:23.979Z,42.27
2018-09-04T14:58:52.490Z,48.83
2018-09-04T15:01:20.845Z,46.57
2018-09-04T15:03:49.354Z,42.00
2018-09-04T15:06:17.851Z,39.93
2018-09-04T15:08:46.314Z,40.03
2018-09-04T15:11:15.283Z,42.17
2018-09-04T15:13:43.777Z,38.67
2018-09-04T15:16:12.153Z,42.53
2018-09-04T15:18:40.621Z,40.27
2018-09-04T15:21:10.209Z,38.67
2018-09-04T15:23:38.645Z,37.53
2018-09-04T15:26:07.322Z,44.07
2018-09-04T15:28:36.466Z,40.50
2018-09-04T15:31:04.965Z,42.60
2018-09-04T15:33:33.690Z,39.07
2018-09-04T15:36:02.204Z,41.07
2018-09-04T15:38:30.562Z,33.83
2018-09-04T15:40:59.628Z,26.63
2018-09-04T15:43:28.134Z,37.53
2018-09-04T15:45:57.345Z,31.13
2018-09-04T15:48:25.860Z,30.60
2018-09-04T15:50:54.305Z,31.50
2018-09-04T15:53:23.006Z,39.67
2018-09-04T15:55:52.007Z,43.50
2018-09-04T15:58:20.387Z,44.67
2018-09-04T16:00:48.765Z,40.60
2018-09-04T16:03:17.158Z,37.67
2018-09-04T16:05:45.567Z,34.93
2018-09-04T16:08:13.945Z,36.83
2018-09-04T16:10:42.616Z,37.57
2018-09-04T16:13:11.057Z,39.07
2018-09-04T16:15:40.023Z,35.30
2018-09-04T16:18:08.626Z,34.37
2018-09-04T16:20:37.035Z,38.30
2018-09-04T16:23:05.472Z,38.07
2018-09-04T16:25:33.861Z,42.53
2018-09-04T16:28:02.890Z,38.57
2018-09-04T16:30:31.249Z,39.40
2018-09-04T16:32:59.788Z,41.90
2018-09-04T16:35:28.176Z,38.57
2018-09-04T16:37:56.633Z,34.90
2018-09-04T16:40:25.047Z,37.87
2018-09-04T16:42:53.386Z,38.17
2018-09-04T16:45:21.750Z,30.97
2018-09-04T16:47:50.546Z,39.27
2018-09-04T16:50:19.888Z,36.63
2018-09-04T16:52:48.328Z,33.13
2018-09-04T16:55:16.834Z,34.07
2018-09-04T16:57:45.468Z,43.77
2018-09-04T17:00:13.869Z,38.37
2018-09-04T17:02:42.270Z,42.37
2018-09-04T17:05:10.720Z,40.67
2018-09-04T17:07:39.066Z,41.40
2018-09-04T17:10:07.455Z,43.53
2018-09-04T17:12:35.981Z,39.93
2018-09-04T17:15:04.421Z,41.13
2018-09-04T17:17:32.821Z,37.60
2018-09-04T17:20:01.257Z,38.87
2018-09-04T17:22:29.629Z,38.70
2018-09-04T17:24:58.043Z,40.57
2018-09-04T17:27:26.524Z,39.17
2018-09-04T17:29:54.914Z,39.50
2018-09-04T17:32:23.298Z,36.20
2018-09-04T17:34:51.668Z,39.07
2018-09-04T17:37:20.165Z,37.53
2018-09-04T17:39:48.649Z,37.90
2018-09-04T17:42:17.015Z,39.00
2018-09-04T17:44:45.389Z,40.50
2018-09-04T17:47:13.824Z,42.20
2018-09-04T17:49:42.230Z,40.33
2018-09-04T17:52:10.704Z,39.93
2018-09-04T17:54:39.264Z,41.77
2018-09-04T17:57:07.667Z,41.43
2018-09-04T17:59:36.078Z,39.67
2018-09-04T18:02:04.505Z,35.60
2018-09-04T18:04:32.983Z,43.73
2018-09-04T18:07:01.394Z,40.17
2018-09-04T18:09:29.775Z,41.87
2018-09-04T18:11:58.296Z,41.40
2018-09-04T18:14:26.712Z,42.10
2018-09-04T18:16:55.193Z,38.50
2018-09-04T18:19:23.609Z,38.27
2018-09-04T18:21:51.945Z,39.27
2018-09-04T18:24:20.545Z,37.57
2018-09-04T18:26:48.974Z,37.23
2018-09-04T18:29:17.394Z,37.17
2018-09-04T18:31:45.823Z,39.37
2018-09-04T18:34:14.213Z,34.80
2018-09-04T18:36:42.592Z,35.23
2018-09-04T18:39:12.113Z,36.63
2018-09-04T18:41:40.518Z,35.03
2018-09-04T18:44:08.974Z,35.10
2018-09-04T18:46:37.389Z,35.03
2018-09-04T18:49:05.964Z,36.00
2018-09-04T18:51:34.329Z,35.73
2018-09-04T18:54:02.757Z,38.03
2018-09-04T18:56:31.123Z,36.37
2018-09-04T18:58:59.489Z,32.90
2018-09-04T19:01:27.905Z,28.47
2018-09-04T19:03:56.303Z,26.60
2018-09-04T19:06:24.692Z,26.53
2018-09-04T19:08:53.069Z,25.20
2018-09-04T19:11:21.512Z,24.23
2018-09-04T19:13:49.945Z,25.17
2018-09-04T19:16:18.383Z,24.20
2018-09-04T19:18:46.779Z,22.67
2018-09-04T19:21:15.317Z,22.50
2018-09-04T19:23:43.860Z,21.23
2018-09-04T19:26:12.217Z,20.17
2018-09-04T19:28:40.690Z,18.70
2018-09-04T19:31:09.103Z,18.13
2018-09-04T19:33:37.646Z,17.63
2018-09-04T19:36:06.099Z,17.07
2018-09-04T19:38:34.465Z,14.70
2018-09-04T19:41:02.844Z,14.00
2018-09-04T19:43:31.292Z,14.70
2018-09-04T19:45:59.653Z,15.13
2018-09-04T19:48:28.096Z,13.97
2018-09-04T19:50:56.621Z,14.10
2018-09-04T19:53:24.983Z,13.60
2018-09-04T19:55:53.410Z,13.73
2018-09-04T19:58:24.449Z,14.47
2018-09-04T20:00:52.933Z,14.77
2018-09-04T20:03:21.286Z,14.30
2018-09-04T20:05:50.284Z,14.17
2018-09-04T20:08:19.029Z,14.07
2018-09-04T20:10:47.408Z,14.13
2018-09-04T20:13:15.935Z,14.23
2018-09-04T20:15:44.757Z,13.47
2018-09-04T20:18:13.154Z,12.90
2018-09-04T20:20:41.770Z,13.30
2018-09-04T20:23:10.104Z,13.10
2018-09-04T20:25:38.548Z,12.97
2018-09-04T20:28:06.985Z,13.87
2018-09-04T20:30:35.484Z,14.37
2018-09-04T20:33:03.875Z,14.53
2018-09-04T20:35:32.241Z,13.33
2018-09-04T20:38:00.669Z,16.40
2018-09-04T20:40:29.030Z,13.37
2018-09-04T20:42:57.435Z,13.70
2018-09-04T20:45:25.953Z,13.37
2018-09-04T20:47:54.469Z,14.30
2018-09-04T20:50:22.949Z,13.20
2018-09-04T20:52:51.342Z,13.37
2018-09-04T20:55:20.022Z,13.47
2018-09-04T20:58:00.085Z,13.37
2018-09-04T21:00:39.629Z,13.70
2018-09-04T21:03:19.141Z,14.37
2018-09-04T21:05:58.630Z,13.07
2018-09-04T21:08:40.570Z,14.40
2018-09-04T21:11:09.065Z,12.90
2018-09-04T21:13:37.500Z,13.13
2018-09-04T21:16:05.912Z,13.30
2018-09-04T21:18:34.352Z,12.90
2018-09-04T21:21:02.745Z,14.30
2018-09-04T21:23:31.221Z,13.60
2018-09-04T21:25:59.745Z,13.83
2018-09-04T21:28:28.113Z,13.57
2018-09-04T21:30:56.545Z,13.63
2018-09-04T21:33:24.931Z,13.73
2018-09-04T21:35:53.282Z,13.77
2018-09-04T21:38:21.670Z,13.47
2018-09-04T21:40:50.083Z,14.47
2018-09-04T21:43:18.471Z,13.27
2018-09-04T21:45:46.892Z,13.73
2018-09-04T21:48:15.330Z,13.73
2018-09-04T21:50:43.724Z,14.47
2018-09-04T21:53:12.100Z,13.70
2018-09-04T21:55:40.504Z,14.13
2018-09-04T21:58:08.890Z,13.17
2018-09-04T22:00:37.354Z,14.03
2018-09-04T22:03:05.779Z,14.40
2018-09-04T22:05:34.254Z,14.00
2018-09-04T22:08:02.641Z,14.33
2018-09-04T22:10:31.070Z,14.03
2018-09-04T22:12:59.478Z,14.03
2018-09-04T22:15:28.001Z,13.70
2018-09-04T22:17:56.408Z,13.73
2018-09-04T22:20:24.761Z,14.67
2018-09-04T22:22:53.110Z,14.07
2018-09-04T22:25:21.592Z,14.43
2018-09-04T22:27:49.957Z,13.80
2018-09-04T22:30:18.410Z,14.50
2018-09-04T22:32:46.915Z,15.00
2018-09-04T22:35:15.281Z,15.03
2018-09-04T22:37:43.817Z,14.90
2018-09-04T22:40:12.253Z,15.03
2018-09-04T22:42:40.820Z,14.93
2018-09-04T22:45:09.447Z,13.20
2018-09-04T22:47:38.673Z,14.00
2018-09-04T22:50:12.321Z,14.37
2018-09-04T22:52:40.732Z,14.57
2018-09-04T22:55:11.133Z,14.20
2018-09-04T22:57:40.530Z,14.23
2018-09-04T23:00:09.356Z,14.20
2018-09-04T23:02:37.709Z,13.70
2018-09-04T23:05:06.285Z,14.60
2018-09-04T23:07:34.642Z,14.33
2018-09-04T23:10:03.121Z,15.27
2018-09-04T23:12:31.984Z,14.43
2018-09-04T23:15:00.357Z,14.27
2018-09-04T23:17:28.800Z,17.77
2018-09-04T23:19:57.221Z,15.10
2018-09-04T23:22:25.568Z,14.13
2018-09-04T23:24:53.952Z,14.67
2018-09-04T23:27:22.358Z,14.97
2018-09-04T23:29:50.745Z,13.97
2018-09-04T23:32:19.123Z,14.50
2018-09-04T23:34:47.514Z,15.10
2018-09-04T23:37:15.878Z,17.13
2018-09-04T23:39:44.233Z,15.57
2018-09-04T23:42:12.609Z,14.57
2018-09-04T23:44:41.503Z,15.30
2018-09-04T23:47:10.498Z,15.80
2018-09-04T23:49:38.929Z,14.83
2018-09-04T23:52:07.313Z,15.93
2018-09-04T23:54:35.713Z,15.90
2018-09-04T23:57:04.133Z,16.73
2018-09-04T23:59:32.570Z,15.97
